KFNL/FNL METAR and TAF weather

Enter ICAO airport designator
Station Type Date Time Source
KFNL METAR 2019/02/22 21:56 UTC NOAA

KFNL 222156Z AUTO 34008KT 9SM OVC010 M04/M06 A2978 RMK AO2 SLP116 T10391061 FZRANO


Station Type Date Time Source
KFNL Decoded METAR 2019/02/22 21:56 UTC NOAA

Fort Collins/Loveland, Fort Collins-Loveland Municipal Airport, CO, United States (KFNL) 40-27N 105-01W
Feb 22, 2019 - 04:56 PM EST / 2019.02.22 2156 UTC
Wind: from the NNW (340 degrees) at 9 MPH (8 KT):0
Visibility: 9 mile(s):0
Sky conditions: overcast
Temperature: 25.0 F (-3.9 C)
Windchill: 15 F (-9 C):1
Dew Point: 21.0 F (-6.1 C)
Relative Humidity: 84%
Pressure (altimeter): 29.78 in. Hg (1008 hPa)
ob: KFNL 222156Z AUTO 34008KT 9SM OVC010 M04/M06 A2978 RMK AO2 SLP116 T10391061 FZRANO
cycle: 22

Station Type Date Time Source
KFNL TAF UTC NOAA

Error!


Example: see airport list